sensor_id;sensor_type;location;lat;lon;timestamp;P1;durP1;ratioP1;P2;durP2;ratioP2
4011;SDS011;2020;48.682;9.024;2023-02-15T00:01:27;24.53;;;15.20;;
4011;SDS011;2020;48.682;9.024;2023-02-15T00:03:52;19.83;;;14.40;;
4011;SDS011;2020;48.682;9.024;2023-02-15T00:06:18;18.20;;;13.23;;
4011;SDS011;2020;48.682;9.024;2023-02-15T00:08:43;22.63;;;15.53;;
4011;SDS011;2020;48.682;9.024;2023-02-15T00:11:10;19.70;;;13.20;;
4011;SDS011;2020;48.682;9.024;2023-02-15T00:13:37;20.03;;;13.00;;
4011;SDS011;2020;48.682;9.024;2023-02-15T00:16:06;22.80;;;14.10;;
4011;SDS011;2020;48.682;9.024;2023-02-15T00:18:36;17.80;;;14.30;;
4011;SDS011;2020;48.682;9.024;2023-02-15T00:21:04;19.57;;;12.83;;
4011;SDS011;2020;48.682;9.024;2023-02-15T00:23:34;19.67;;;14.47;;
4011;SDS011;2020;48.682;9.024;2023-02-15T00:26:07;23.70;;;14.27;;
4011;SDS011;2020;48.682;9.024;2023-02-15T00:28:35;22.50;;;15.23;;
4011;SDS011;2020;48.682;9.024;2023-02-15T00:31:07;18.73;;;12.40;;
4011;SDS011;2020;48.682;9.024;2023-02-15T00:33:34;21.93;;;14.30;;
4011;SDS011;2020;48.682;9.024;2023-02-15T00:35:59;21.10;;;13.87;;
4011;SDS011;2020;48.682;9.024;2023-02-15T00:38:26;19.60;;;13.30;;
4011;SDS011;2020;48.682;9.024;2023-02-15T00:40:59;19.40;;;12.10;;
4011;SDS011;2020;48.682;9.024;2023-02-15T00:43:27;23.63;;;13.50;;
4011;SDS011;2020;48.682;9.024;2023-02-15T00:45:54;14.80;;;12.27;;
4011;SDS011;2020;48.682;9.024;2023-02-15T00:48:19;19.17;;;13.20;;
4011;SDS011;2020;48.682;9.024;2023-02-15T00:50:45;18.27;;;12.67;;
4011;SDS011;2020;48.682;9.024;2023-02-15T00:53:14;19.27;;;13.57;;
4011;SDS011;2020;48.682;9.024;2023-02-15T00:55:40;18.67;;;13.00;;
4011;SDS011;2020;48.682;9.024;2023-02-15T00:58:06;19.40;;;12.00;;
4011;SDS011;2020;48.682;9.024;2023-02-15T01:00:32;17.77;;;12.97;;
4011;SDS011;2020;48.682;9.024;2023-02-15T01:02:58;18.67;;;13.43;;
4011;SDS011;2020;48.682;9.024;2023-02-15T01:05:23;16.60;;;12.43;;
4011;SDS011;2020;48.682;9.024;2023-02-15T01:07:48;17.27;;;13.50;;
4011;SDS011;2020;48.682;9.024;2023-02-15T01:10:14;19.63;;;13.67;;
4011;SDS011;2020;48.682;9.024;2023-02-15T01:12:39;18.07;;;12.57;;
4011;SDS011;2020;48.682;9.024;2023-02-15T01:15:04;14.23;;;11.53;;
4011;SDS011;2020;48.682;9.024;2023-02-15T01:17:30;18.40;;;13.60;;
4011;SDS011;2020;48.682;9.024;2023-02-15T01:19:56;21.33;;;12.77;;
4011;SDS011;2020;48.682;9.024;2023-02-15T01:22:21;18.13;;;13.07;;
4011;SDS011;2020;48.682;9.024;2023-02-15T01:24:48;16.40;;;12.13;;
4011;SDS011;2020;48.682;9.024;2023-02-15T01:27:14;22.50;;;13.27;;
4011;SDS011;2020;48.682;9.024;2023-02-15T01:29:39;17.10;;;12.47;;
4011;SDS011;2020;48.682;9.024;2023-02-15T01:32:04;18.00;;;12.30;;
4011;SDS011;2020;48.682;9.024;2023-02-15T01:34:29;15.73;;;11.30;;
4011;SDS011;2020;48.682;9.024;2023-02-15T01:36:55;21.13;;;13.80;;
4011;SDS011;2020;48.682;9.024;2023-02-15T01:39:20;21.87;;;12.57;;
4011;SDS011;2020;48.682;9.024;2023-02-15T01:41:45;16.30;;;11.20;;
4011;SDS011;2020;48.682;9.024;2023-02-15T01:47:29;17.70;;;12.30;;
4011;SDS011;2020;48.682;9.024;2023-02-15T01:50:03;19.53;;;11.30;;
4011;SDS011;2020;48.682;9.024;2023-02-15T01:53:01;21.47;;;12.23;;
4011;SDS011;2020;48.682;9.024;2023-02-15T01:55:33;21.23;;;14.70;;
4011;SDS011;2020;48.682;9.024;2023-02-15T01:58:02;19.93;;;12.70;;
4011;SDS011;2020;48.682;9.024;2023-02-15T02:00:28;17.83;;;13.63;;
4011;SDS011;2020;48.682;9.024;2023-02-15T02:02:54;18.60;;;12.93;;
4011;SDS011;2020;48.682;9.024;2023-02-15T02:05:21;14.83;;;12.77;;
4011;SDS011;2020;48.682;9.024;2023-02-15T02:07:47;15.93;;;12.63;;
4011;SDS011;2020;48.682;9.024;2023-02-15T02:10:17;21.27;;;13.40;;
4011;SDS011;2020;48.682;9.024;2023-02-15T02:12:45;24.90;;;13.50;;
4011;SDS011;2020;48.682;9.024;2023-02-15T02:15:14;20.00;;;14.90;;
4011;SDS011;2020;48.682;9.024;2023-02-15T02:23:15;20.90;;;13.77;;
4011;SDS011;2020;48.682;9.024;2023-02-15T02:25:54;19.73;;;14.27;;
4011;SDS011;2020;48.682;9.024;2023-02-15T02:34:21;19.93;;;13.07;;
4011;SDS011;2020;48.682;9.024;2023-02-15T02:40:03;18.70;;;11.60;;
4011;SDS011;2020;48.682;9.024;2023-02-15T02:42:39;22.47;;;12.73;;
4011;SDS011;2020;48.682;9.024;2023-02-15T02:45:09;15.07;;;11.60;;
4011;SDS011;2020;48.682;9.024;2023-02-15T02:47:46;14.00;;;11.20;;
4011;SDS011;2020;48.682;9.024;2023-02-15T02:50:17;17.70;;;13.10;;
4011;SDS011;2020;48.682;9.024;2023-02-15T02:52:48;19.30;;;12.73;;
4011;SDS011;2020;48.682;9.024;2023-02-15T02:55:31;16.47;;;12.63;;
4011;SDS011;2020;48.682;9.024;2023-02-15T02:58:24;14.50;;;11.97;;
4011;SDS011;2020;48.682;9.024;2023-02-15T03:00:57;17.33;;;11.33;;
4011;SDS011;2020;48.682;9.024;2023-02-15T03:03:30;19.70;;;12.40;;
4011;SDS011;2020;48.682;9.024;2023-02-15T03:06:02;17.83;;;13.70;;
4011;SDS011;2020;48.682;9.024;2023-02-15T03:08:35;16.70;;;13.43;;
4011;SDS011;2020;48.682;9.024;2023-02-15T03:11:03;25.87;;;14.30;;
4011;SDS011;2020;48.682;9.024;2023-02-15T03:13:29;13.90;;;12.50;;
4011;SDS011;2020;48.682;9.024;2023-02-15T03:15:54;20.10;;;12.60;;
4011;SDS011;2020;48.682;9.024;2023-02-15T03:18:45;18.37;;;13.20;;
4011;SDS011;2020;48.682;9.024;2023-02-15T03:21:18;17.33;;;13.17;;
4011;SDS011;2020;48.682;9.024;2023-02-15T03:23:54;17.17;;;13.50;;
4011;SDS011;2020;48.682;9.024;2023-02-15T03:26:25;16.27;;;12.63;;
4011;SDS011;2020;48.682;9.024;2023-02-15T03:28:53;18.57;;;13.00;;
4011;SDS011;2020;48.682;9.024;2023-02-15T03:31:21;20.83;;;14.33;;
4011;SDS011;2020;48.682;9.024;2023-02-15T03:33:53;18.13;;;11.53;;
4011;SDS011;2020;48.682;9.024;2023-02-15T03:36:26;15.33;;;12.50;;
4011;SDS011;2020;48.682;9.024;2023-02-15T03:39:04;19.13;;;13.63;;
4011;SDS011;2020;48.682;9.024;2023-02-15T03:41:39;19.00;;;14.13;;
4011;SDS011;2020;48.682;9.024;2023-02-15T03:44:23;16.27;;;12.73;;
4011;SDS011;2020;48.682;9.024;2023-02-15T03:46:55;20.70;;;13.57;;
4011;SDS011;2020;48.682;9.024;2023-02-15T03:52:08;19.37;;;13.40;;
4011;SDS011;2020;48.682;9.024;2023-02-15T03:54:36;18.70;;;12.80;;
4011;SDS011;2020;48.682;9.024;2023-02-15T04:00:04;14.47;;;12.77;;
4011;SDS011;2020;48.682;9.024;2023-02-15T04:05:53;18.30;;;13.40;;
4011;SDS011;2020;48.682;9.024;2023-02-15T04:08:18;21.20;;;13.50;;
4011;SDS011;2020;48.682;9.024;2023-02-15T04:10:43;16.03;;;13.20;;
4011;SDS011;2020;48.682;9.024;2023-02-15T04:13:18;18.40;;;13.80;;
4011;SDS011;2020;48.682;9.024;2023-02-15T04:15:45;22.53;;;13.20;;
4011;SDS011;2020;48.682;9.024;2023-02-15T04:18:38;19.10;;;13.60;;
4011;SDS011;2020;48.682;9.024;2023-02-15T04:21:24;17.33;;;11.70;;
4011;SDS011;2020;48.682;9.024;2023-02-15T04:24:09;20.43;;;13.13;;
4011;SDS011;2020;48.682;9.024;2023-02-15T04:26:54;18.93;;;12.97;;
4011;SDS011;2020;48.682;9.024;2023-02-15T04:29:20;14.60;;;11.80;;
4011;SDS011;2020;48.682;9.024;2023-02-15T04:31:46;18.03;;;12.10;;
4011;SDS011;2020;48.682;9.024;2023-02-15T04:34:12;16.97;;;13.03;;
4011;SDS011;2020;48.682;9.024;2023-02-15T04:36:37;18.23;;;13.63;;
4011;SDS011;2020;48.682;9.024;2023-02-15T04:39:03;15.20;;;12.40;;
4011;SDS011;2020;48.682;9.024;2023-02-15T04:41:29;17.53;;;12.57;;
4011;SDS011;2020;48.682;9.024;2023-02-15T04:43:54;20.27;;;13.50;;
4011;SDS011;2020;48.682;9.024;2023-02-15T04:46:19;13.83;;;12.43;;
4011;SDS011;2020;48.682;9.024;2023-02-15T04:48:45;25.63;;;14.43;;
4011;SDS011;2020;48.682;9.024;2023-02-15T04:51:10;24.00;;;13.47;;
4011;SDS011;2020;48.682;9.024;2023-02-15T04:53:35;18.47;;;12.13;;
4011;SDS011;2020;48.682;9.024;2023-02-15T04:56:01;14.67;;;12.47;;
4011;SDS011;2020;48.682;9.024;2023-02-15T04:58:27;22.47;;;15.40;;
4011;SDS011;2020;48.682;9.024;2023-02-15T05:00:54;14.43;;;11.30;;
4011;SDS011;2020;48.682;9.024;2023-02-15T05:03:20;19.70;;;13.87;;
4011;SDS011;2020;48.682;9.024;2023-02-15T05:05:46;18.57;;;14.20;;
4011;SDS011;2020;48.682;9.024;2023-02-15T05:08:11;14.50;;;11.33;;
4011;SDS011;2020;48.682;9.024;2023-02-15T05:10:36;15.00;;;12.30;;
4011;SDS011;2020;48.682;9.024;2023-02-15T05:13:01;23.03;;;14.27;;
4011;SDS011;2020;48.682;9.024;2023-02-15T05:15:27;18.57;;;11.80;;
4011;SDS011;2020;48.682;9.024;2023-02-15T05:17:52;15.63;;;11.83;;
4011;SDS011;2020;48.682;9.024;2023-02-15T05:20:17;18.57;;;12.00;;
4011;SDS011;2020;48.682;9.024;2023-02-15T05:22:43;17.87;;;11.80;;
4011;SDS011;2020;48.682;9.024;2023-02-15T05:25:09;19.47;;;12.57;;
4011;SDS011;2020;48.682;9.024;2023-02-15T05:27:53;15.67;;;11.93;;
4011;SDS011;2020;48.682;9.024;2023-02-15T05:30:37;18.03;;;12.47;;
4011;SDS011;2020;48.682;9.024;2023-02-15T05:33:04;20.60;;;14.03;;
4011;SDS011;2020;48.682;9.024;2023-02-15T05:35:30;18.67;;;13.07;;
4011;SDS011;2020;48.682;9.024;2023-02-15T05:37:55;20.70;;;13.37;;
4011;SDS011;2020;48.682;9.024;2023-02-15T05:40:20;20.47;;;11.33;;
4011;SDS011;2020;48.682;9.024;2023-02-15T05:42:45;17.00;;;12.97;;
4011;SDS011;2020;48.682;9.024;2023-02-15T05:45:11;14.73;;;12.27;;
4011;SDS011;2020;48.682;9.024;2023-02-15T05:47:36;17.97;;;13.40;;
4011;SDS011;2020;48.682;9.024;2023-02-15T05:50:01;16.10;;;12.23;;
4011;SDS011;2020;48.682;9.024;2023-02-15T05:52:26;20.07;;;13.87;;
4011;SDS011;2020;48.682;9.024;2023-02-15T05:54:52;14.10;;;11.30;;
4011;SDS011;2020;48.682;9.024;2023-02-15T05:57:17;20.10;;;13.20;;
4011;SDS011;2020;48.682;9.024;2023-02-15T05:59:42;16.00;;;12.00;;
4011;SDS011;2020;48.682;9.024;2023-02-15T06:02:07;15.70;;;12.90;;
4011;SDS011;2020;48.682;9.024;2023-02-15T06:04:33;16.50;;;11.43;;
4011;SDS011;2020;48.682;9.024;2023-02-15T06:06:58;20.73;;;12.23;;
4011;SDS011;2020;48.682;9.024;2023-02-15T06:09:23;27.53;;;12.40;;
4011;SDS011;2020;48.682;9.024;2023-02-15T06:11:48;17.67;;;12.40;;
4011;SDS011;2020;48.682;9.024;2023-02-15T06:14:14;17.60;;;11.83;;
4011;SDS011;2020;48.682;9.024;2023-02-15T06:16:39;13.13;;;10.60;;
4011;SDS011;2020;48.682;9.024;2023-02-15T06:19:04;18.10;;;12.60;;
4011;SDS011;2020;48.682;9.024;2023-02-15T06:21:30;18.80;;;12.43;;
4011;SDS011;2020;48.682;9.024;2023-02-15T06:23:55;16.43;;;12.30;;
4011;SDS011;2020;48.682;9.024;2023-02-15T06:26:21;20.03;;;13.20;;
4011;SDS011;2020;48.682;9.024;2023-02-15T06:28:47;17.83;;;13.60;;
4011;SDS011;2020;48.682;9.024;2023-02-15T06:31:12;14.73;;;11.53;;
4011;SDS011;2020;48.682;9.024;2023-02-15T06:33:37;22.20;;;13.63;;
4011;SDS011;2020;48.682;9.024;2023-02-15T06:36:03;19.07;;;13.13;;
4011;SDS011;2020;48.682;9.024;2023-02-15T06:38:29;33.90;;;14.53;;
4011;SDS011;2020;48.682;9.024;2023-02-15T06:40:54;15.93;;;13.30;;
4011;SDS011;2020;48.682;9.024;2023-02-15T06:43:19;16.17;;;12.50;;
4011;SDS011;2020;48.682;9.024;2023-02-15T06:45:45;19.00;;;13.47;;
4011;SDS011;2020;48.682;9.024;2023-02-15T06:48:10;17.63;;;13.20;;
4011;SDS011;2020;48.682;9.024;2023-02-15T06:50:36;16.90;;;11.97;;
4011;SDS011;2020;48.682;9.024;2023-02-15T06:53:01;16.93;;;12.80;;
4011;SDS011;2020;48.682;9.024;2023-02-15T06:55:26;14.43;;;11.53;;
4011;SDS011;2020;48.682;9.024;2023-02-15T06:57:52;18.63;;;13.13;;
4011;SDS011;2020;48.682;9.024;2023-02-15T07:00:17;15.37;;;12.50;;
4011;SDS011;2020;48.682;9.024;2023-02-15T07:02:43;16.13;;;12.53;;
4011;SDS011;2020;48.682;9.024;2023-02-15T07:05:09;16.97;;;13.63;;
4011;SDS011;2020;48.682;9.024;2023-02-15T07:07:34;18.67;;;14.07;;
4011;SDS011;2020;48.682;9.024;2023-02-15T07:09:59;18.63;;;12.23;;
4011;SDS011;2020;48.682;9.024;2023-02-15T07:12:24;22.27;;;13.03;;
4011;SDS011;2020;48.682;9.024;2023-02-15T07:15:16;20.17;;;13.90;;
4011;SDS011;2020;48.682;9.024;2023-02-15T07:17:45;19.00;;;13.07;;
4011;SDS011;2020;48.682;9.024;2023-02-15T07:20:16;13.40;;;11.77;;
4011;SDS011;2020;48.682;9.024;2023-02-15T07:22:43;16.53;;;12.00;;
4011;SDS011;2020;48.682;9.024;2023-02-15T07:25:09;18.20;;;10.30;;
4011;SDS011;2020;48.682;9.024;2023-02-15T07:27:35;14.57;;;10.87;;
4011;SDS011;2020;48.682;9.024;2023-02-15T07:30:01;17.20;;;11.27;;
4011;SDS011;2020;48.682;9.024;2023-02-15T07:32:27;16.83;;;12.13;;
4011;SDS011;2020;48.682;9.024;2023-02-15T07:34:56;12.23;;;10.80;;
4011;SDS011;2020;48.682;9.024;2023-02-15T07:37:22;16.50;;;10.00;;
4011;SDS011;2020;48.682;9.024;2023-02-15T07:39:47;15.47;;;10.00;;
4011;SDS011;2020;48.682;9.024;2023-02-15T07:42:12;10.73;;;9.20;;
4011;SDS011;2020;48.682;9.024;2023-02-15T07:44:38;12.03;;;8.97;;
4011;SDS011;2020;48.682;9.024;2023-02-15T07:47:03;11.50;;;8.87;;
4011;SDS011;2020;48.682;9.024;2023-02-15T07:49:29;8.30;;;7.40;;
4011;SDS011;2020;48.682;9.024;2023-02-15T07:51:54;11.37;;;7.40;;
4011;SDS011;2020;48.682;9.024;2023-02-15T07:54:19;8.23;;;7.03;;
4011;SDS011;2020;48.682;9.024;2023-02-15T07:56:44;13.57;;;10.77;;
4011;SDS011;2020;48.682;9.024;2023-02-15T07:59:10;14.60;;;10.63;;
4011;SDS011;2020;48.682;9.024;2023-02-15T08:01:36;13.77;;;9.97;;
4011;SDS011;2020;48.682;9.024;2023-02-15T08:04:03;15.57;;;11.60;;
4011;SDS011;2020;48.682;9.024;2023-02-15T08:06:31;17.07;;;10.90;;
4011;SDS011;2020;48.682;9.024;2023-02-15T08:09:00;13.67;;;11.43;;
4011;SDS011;2020;48.682;9.024;2023-02-15T08:11:29;18.33;;;12.40;;
4011;SDS011;2020;48.682;9.024;2023-02-15T08:14:03;22.17;;;14.77;;
4011;SDS011;2020;48.682;9.024;2023-02-15T08:19:02;25.83;;;16.07;;
4011;SDS011;2020;48.682;9.024;2023-02-15T08:21:32;26.37;;;16.07;;
4011;SDS011;2020;48.682;9.024;2023-02-15T08:23:58;27.67;;;15.70;;
4011;SDS011;2020;48.682;9.024;2023-02-15T08:26:24;19.93;;;14.80;;
4011;SDS011;2020;48.682;9.024;2023-02-15T08:28:50;24.50;;;15.90;;
4011;SDS011;2020;48.682;9.024;2023-02-15T08:31:16;28.73;;;18.73;;
4011;SDS011;2020;48.682;9.024;2023-02-15T08:33:43;23.80;;;15.73;;
4011;SDS011;2020;48.682;9.024;2023-02-15T08:36:10;31.23;;;15.87;;
4011;SDS011;2020;48.682;9.024;2023-02-15T08:38:37;26.60;;;17.30;;
4011;SDS011;2020;48.682;9.024;2023-02-15T08:41:10;20.27;;;15.17;;
4011;SDS011;2020;48.682;9.024;2023-02-15T08:43:37;20.23;;;13.20;;
4011;SDS011;2020;48.682;9.024;2023-02-15T08:46:03;18.83;;;13.57;;
4011;SDS011;2020;48.682;9.024;2023-02-15T08:48:28;20.20;;;13.73;;
4011;SDS011;2020;48.682;9.024;2023-02-15T08:50:54;18.73;;;13.07;;
4011;SDS011;2020;48.682;9.024;2023-02-15T08:53:19;15.47;;;11.83;;
4011;SDS011;2020;48.682;9.024;2023-02-15T08:55:46;15.77;;;13.07;;
4011;SDS011;2020;48.682;9.024;2023-02-15T08:58:12;13.70;;;11.57;;
4011;SDS011;2020;48.682;9.024;2023-02-15T09:00:37;19.00;;;12.57;;
4011;SDS011;2020;48.682;9.024;2023-02-15T09:03:03;23.73;;;13.00;;
4011;SDS011;2020;48.682;9.024;2023-02-15T09:05:28;19.03;;;13.47;;
4011;SDS011;2020;48.682;9.024;2023-02-15T09:07:53;17.73;;;13.67;;
4011;SDS011;2020;48.682;9.024;2023-02-15T09:10:18;20.30;;;12.53;;
4011;SDS011;2020;48.682;9.024;2023-02-15T09:12:45;17.43;;;11.90;;
4011;SDS011;2020;48.682;9.024;2023-02-15T09:15:10;12.73;;;10.90;;
4011;SDS011;2020;48.682;9.024;2023-02-15T09:17:35;15.60;;;10.37;;
4011;SDS011;2020;48.682;9.024;2023-02-15T09:20:01;10.50;;;9.43;;
4011;SDS011;2020;48.682;9.024;2023-02-15T09:22:26;11.80;;;10.03;;
4011;SDS011;2020;48.682;9.024;2023-02-15T09:24:51;11.00;;;9.90;;
4011;SDS011;2020;48.682;9.024;2023-02-15T09:27:17;14.30;;;10.47;;
4011;SDS011;2020;48.682;9.024;2023-02-15T09:29:42;11.10;;;9.27;;
4011;SDS011;2020;48.682;9.024;2023-02-15T09:32:07;11.23;;;10.00;;
4011;SDS011;2020;48.682;9.024;2023-02-15T09:34:32;11.47;;;10.13;;
4011;SDS011;2020;48.682;9.024;2023-02-15T09:36:58;12.30;;;9.77;;
4011;SDS011;2020;48.682;9.024;2023-02-15T09:39:24;15.60;;;10.77;;
4011;SDS011;2020;48.682;9.024;2023-02-15T09:47:06;14.07;;;10.53;;
4011;SDS011;2020;48.682;9.024;2023-02-15T09:49:44;9.23;;;8.40;;
4011;SDS011;2020;48.682;9.024;2023-02-15T09:52:47;11.60;;;8.60;;
4011;SDS011;2020;48.682;9.024;2023-02-15T09:58:03;10.67;;;9.50;;
4011;SDS011;2020;48.682;9.024;2023-02-15T10:00:44;10.00;;;9.00;;
4011;SDS011;2020;48.682;9.024;2023-02-15T10:03:53;10.43;;;9.20;;
4011;SDS011;2020;48.682;9.024;2023-02-15T10:11:29;11.90;;;9.27;;
4011;SDS011;2020;48.682;9.024;2023-02-15T10:22:10;10.77;;;8.80;;
4011;SDS011;2020;48.682;9.024;2023-02-15T10:27:36;9.93;;;8.97;;
4011;SDS011;2020;48.682;9.024;2023-02-15T10:30:14;8.87;;;7.97;;
4011;SDS011;2020;48.682;9.024;2023-02-15T10:32:44;14.70;;;8.83;;
4011;SDS011;2020;48.682;9.024;2023-02-15T10:38:37;9.73;;;8.93;;
4011;SDS011;2020;48.682;9.024;2023-02-15T10:44:34;10.83;;;9.67;;
4011;SDS011;2020;48.682;9.024;2023-02-15T10:47:12;16.03;;;10.90;;
4011;SDS011;2020;48.682;9.024;2023-02-15T10:52:50;9.03;;;8.17;;
4011;SDS011;2020;48.682;9.024;2023-02-15T11:00:53;10.40;;;9.40;;
4011;SDS011;2020;48.682;9.024;2023-02-15T11:03:43;10.33;;;9.23;;
4011;SDS011;2020;48.682;9.024;2023-02-15T11:06:13;10.57;;;8.93;;
4011;SDS011;2020;48.682;9.024;2023-02-15T11:08:52;9.43;;;8.67;;
4011;SDS011;2020;48.682;9.024;2023-02-15T11:11:27;10.73;;;9.53;;
4011;SDS011;2020;48.682;9.024;2023-02-15T11:13:58;11.33;;;9.30;;
4011;SDS011;2020;48.682;9.024;2023-02-15T11:16:32;9.40;;;8.50;;
4011;SDS011;2020;48.682;9.024;2023-02-15T11:19:21;10.20;;;9.10;;
4011;SDS011;2020;48.682;9.024;2023-02-15T11:21:52;9.63;;;8.47;;
4011;SDS011;2020;48.682;9.024;2023-02-15T11:24:25;10.13;;;9.23;;
4011;SDS011;2020;48.682;9.024;2023-02-15T11:27:27;9.23;;;8.40;;
4011;SDS011;2020;48.682;9.024;2023-02-15T11:30:03;8.70;;;7.80;;
4011;SDS011;2020;48.682;9.024;2023-02-15T11:32:42;9.10;;;8.30;;
4011;SDS011;2020;48.682;9.024;2023-02-15T11:37:43;8.97;;;8.07;;
4011;SDS011;2020;48.682;9.024;2023-02-15T11:42:56;9.10;;;8.20;;
4011;SDS011;2020;48.682;9.024;2023-02-15T11:45:31;8.53;;;7.47;;
4011;SDS011;2020;48.682;9.024;2023-02-15T11:47:59;7.77;;;7.07;;
4011;SDS011;2020;48.682;9.024;2023-02-15T11:50:30;9.77;;;8.77;;
4011;SDS011;2020;48.682;9.024;2023-02-15T11:53:09;9.57;;;8.60;;
4011;SDS011;2020;48.682;9.024;2023-02-15T11:55:38;9.30;;;7.80;;
4011;SDS011;2020;48.682;9.024;2023-02-15T11:58:08;11.40;;;8.20;;
4011;SDS011;2020;48.682;9.024;2023-02-15T12:00:49;9.50;;;8.33;;
4011;SDS011;2020;48.682;9.024;2023-02-15T12:06:12;8.83;;;7.90;;
4011;SDS011;2020;48.682;9.024;2023-02-15T12:08:43;9.67;;;8.03;;
4011;SDS011;2020;48.682;9.024;2023-02-15T12:11:17;9.77;;;8.70;;
4011;SDS011;2020;48.682;9.024;2023-02-15T12:13:55;9.00;;;8.20;;
4011;SDS011;2020;48.682;9.024;2023-02-15T12:16:23;7.97;;;7.27;;
4011;SDS011;2020;48.682;9.024;2023-02-15T12:18:48;15.00;;;8.10;;
4011;SDS011;2020;48.682;9.024;2023-02-15T12:21:30;8.80;;;7.90;;
4011;SDS011;2020;48.682;9.024;2023-02-15T12:26:44;7.57;;;6.70;;
4011;SDS011;2020;48.682;9.024;2023-02-15T12:29:20;8.33;;;6.10;;
4011;SDS011;2020;48.682;9.024;2023-02-15T12:31:49;6.70;;;6.10;;
4011;SDS011;2020;48.682;9.024;2023-02-15T12:34:18;6.87;;;6.37;;
4011;SDS011;2020;48.682;9.024;2023-02-15T12:36:59;8.30;;;6.73;;
4011;SDS011;2020;48.682;9.024;2023-02-15T12:39:28;9.03;;;7.03;;
4011;SDS011;2020;48.682;9.024;2023-02-15T12:44:21;7.73;;;6.83;;
4011;SDS011;2020;48.682;9.024;2023-02-15T12:47:00;7.93;;;6.93;;
4011;SDS011;2020;48.682;9.024;2023-02-15T12:49:41;7.87;;;6.90;;
4011;SDS011;2020;48.682;9.024;2023-02-15T12:54:45;8.63;;;7.00;;
4011;SDS011;2020;48.682;9.024;2023-02-15T12:59:49;9.97;;;6.50;;
4011;SDS011;2020;48.682;9.024;2023-02-15T13:02:19;6.57;;;5.97;;
4011;SDS011;2020;48.682;9.024;2023-02-15T13:04:48;9.03;;;7.13;;
4011;SDS011;2020;48.682;9.024;2023-02-15T13:07:14;8.30;;;7.50;;
4011;SDS011;2020;48.682;9.024;2023-02-15T13:09:39;11.10;;;7.30;;
4011;SDS011;2020;48.682;9.024;2023-02-15T13:12:15;26.27;;;12.63;;
4011;SDS011;2020;48.682;9.024;2023-02-15T13:14:46;12.17;;;11.03;;
4011;SDS011;2020;48.682;9.024;2023-02-15T13:17:15;14.30;;;11.40;;
4011;SDS011;2020;48.682;9.024;2023-02-15T13:19:46;10.80;;;9.70;;
4011;SDS011;2020;48.682;9.024;2023-02-15T13:22:16;12.40;;;9.03;;
4011;SDS011;2020;48.682;9.024;2023-02-15T13:24:46;9.80;;;8.80;;
4011;SDS011;2020;48.682;9.024;2023-02-15T13:27:16;14.83;;;10.17;;
4011;SDS011;2020;48.682;9.024;2023-02-15T13:29:53;16.70;;;9.97;;
4011;SDS011;2020;48.682;9.024;2023-02-15T13:32:31;12.90;;;10.47;;
4011;SDS011;2020;48.682;9.024;2023-02-15T13:35:01;16.43;;;9.97;;
4011;SDS011;2020;48.682;9.024;2023-02-15T13:40:37;12.83;;;10.57;;
4011;SDS011;2020;48.682;9.024;2023-02-15T13:47:09;10.80;;;9.73;;
4011;SDS011;2020;48.682;9.024;2023-02-15T13:52:04;11.07;;;10.03;;
4011;SDS011;2020;48.682;9.024;2023-02-15T13:57:28;13.03;;;9.50;;
4011;SDS011;2020;48.682;9.024;2023-02-15T14:11:04;16.73;;;9.07;;
4011;SDS011;2020;48.682;9.024;2023-02-15T14:13:44;9.83;;;8.83;;
4011;SDS011;2020;48.682;9.024;2023-02-15T14:16:27;8.53;;;7.40;;
4011;SDS011;2020;48.682;9.024;2023-02-15T14:19:00;9.80;;;8.90;;
4011;SDS011;2020;48.682;9.024;2023-02-15T14:21:39;10.10;;;9.07;;
4011;SDS011;2020;48.682;9.024;2023-02-15T14:24:24;9.73;;;8.93;;
4011;SDS011;2020;48.682;9.024;2023-02-15T14:29:54;12.63;;;10.60;;
4011;SDS011;2020;48.682;9.024;2023-02-15T14:35:01;9.60;;;8.70;;
4011;SDS011;2020;48.682;9.024;2023-02-15T14:46:27;11.70;;;9.63;;
4011;SDS011;2020;48.682;9.024;2023-02-15T14:54:06;12.00;;;10.07;;
4011;SDS011;2020;48.682;9.024;2023-02-15T14:56:32;14.07;;;10.30;;
4011;SDS011;2020;48.682;9.024;2023-02-15T14:58:58;11.13;;;10.00;;
4011;SDS011;2020;48.682;9.024;2023-02-15T15:01:27;12.13;;;10.93;;
4011;SDS011;2020;48.682;9.024;2023-02-15T15:03:56;14.77;;;12.00;;
4011;SDS011;2020;48.682;9.024;2023-02-15T15:06:30;13.77;;;12.17;;
4011;SDS011;2020;48.682;9.024;2023-02-15T15:09:08;13.77;;;12.37;;
4011;SDS011;2020;48.682;9.024;2023-02-15T15:11:44;15.10;;;12.23;;
4011;SDS011;2020;48.682;9.024;2023-02-15T15:16:58;14.10;;;12.60;;
4011;SDS011;2020;48.682;9.024;2023-02-15T15:22:33;14.43;;;12.93;;
4011;SDS011;2020;48.682;9.024;2023-02-15T15:32:37;12.97;;;11.67;;
4011;SDS011;2020;48.682;9.024;2023-02-15T15:43:46;10.80;;;9.80;;
4011;SDS011;2020;48.682;9.024;2023-02-15T15:49:34;12.40;;;9.50;;
4011;SDS011;2020;48.682;9.024;2023-02-15T15:52:02;11.73;;;9.70;;
4011;SDS011;2020;48.682;9.024;2023-02-15T15:54:35;10.63;;;9.53;;
4011;SDS011;2020;48.682;9.024;2023-02-15T15:57:04;9.53;;;8.73;;
4011;SDS011;2020;48.682;9.024;2023-02-15T15:59:37;12.90;;;10.13;;
4011;SDS011;2020;48.682;9.024;2023-02-15T16:02:12;11.03;;;9.50;;
4011;SDS011;2020;48.682;9.024;2023-02-15T16:04:40;9.00;;;8.07;;
4011;SDS011;2020;48.682;9.024;2023-02-15T16:07:40;10.50;;;8.90;;
4011;SDS011;2020;48.682;9.024;2023-02-15T16:09:59;9.93;;;7.50;;
4011;SDS011;2020;48.682;9.024;2023-02-15T16:12:27;9.13;;;8.43;;
4011;SDS011;2020;48.682;9.024;2023-02-15T16:14:54;15.03;;;9.20;;
4011;SDS011;2020;48.682;9.024;2023-02-15T16:17:22;11.00;;;8.80;;
4011;SDS011;2020;48.682;9.024;2023-02-15T16:19:56;10.30;;;8.13;;
4011;SDS011;2020;48.682;9.024;2023-02-15T16:22:39;12.17;;;9.27;;
4011;SDS011;2020;48.682;9.024;2023-02-15T16:27:43;9.67;;;8.77;;
4011;SDS011;2020;48.682;9.024;2023-02-15T16:30:19;10.80;;;9.80;;
4011;SDS011;2020;48.682;9.024;2023-02-15T16:32:47;12.47;;;9.87;;
4011;SDS011;2020;48.682;9.024;2023-02-15T16:35:14;12.13;;;9.40;;
4011;SDS011;2020;48.682;9.024;2023-02-15T16:37:43;11.10;;;8.83;;
4011;SDS011;2020;48.682;9.024;2023-02-15T16:40:29;10.20;;;9.20;;
4011;SDS011;2020;48.682;9.024;2023-02-15T16:43:04;8.80;;;8.10;;
4011;SDS011;2020;48.682;9.024;2023-02-15T16:45:35;9.53;;;8.50;;
4011;SDS011;2020;48.682;9.024;2023-02-15T16:48:05;19.80;;;10.30;;
4011;SDS011;2020;48.682;9.024;2023-02-15T16:50:37;10.43;;;9.33;;
4011;SDS011;2020;48.682;9.024;2023-02-15T16:53:04;10.53;;;8.90;;
4011;SDS011;2020;48.682;9.024;2023-02-15T16:55:37;14.90;;;9.73;;
4011;SDS011;2020;48.682;9.024;2023-02-15T16:58:06;11.27;;;8.57;;
4011;SDS011;2020;48.682;9.024;2023-02-15T17:00:39;9.40;;;8.27;;
4011;SDS011;2020;48.682;9.024;2023-02-15T17:13:24;15.13;;;9.37;;
4011;SDS011;2020;48.682;9.024;2023-02-15T17:18:28;12.77;;;9.73;;
4011;SDS011;2020;48.682;9.024;2023-02-15T17:20:55;11.13;;;9.63;;
4011;SDS011;2020;48.682;9.024;2023-02-15T17:23:34;14.70;;;9.27;;
4011;SDS011;2020;48.682;9.024;2023-02-15T17:26:12;16.53;;;10.10;;
4011;SDS011;2020;48.682;9.024;2023-02-15T17:28:47;12.37;;;9.37;;
4011;SDS011;2020;48.682;9.024;2023-02-15T17:31:17;11.10;;;9.10;;
4011;SDS011;2020;48.682;9.024;2023-02-15T17:33:44;11.37;;;9.67;;
4011;SDS011;2020;48.682;9.024;2023-02-15T17:36:13;12.17;;;8.60;;
4011;SDS011;2020;48.682;9.024;2023-02-15T17:41:21;17.27;;;9.87;;
4011;SDS011;2020;48.682;9.024;2023-02-15T17:43:51;17.33;;;9.07;;
4011;SDS011;2020;48.682;9.024;2023-02-15T17:46:16;13.20;;;8.33;;
4011;SDS011;2020;48.682;9.024;2023-02-15T17:48:45;13.00;;;8.73;;
4011;SDS011;2020;48.682;9.024;2023-02-15T17:51:12;10.57;;;9.00;;
4011;SDS011;2020;48.682;9.024;2023-02-15T17:53:38;11.53;;;10.10;;
4011;SDS011;2020;48.682;9.024;2023-02-15T17:56:04;13.30;;;10.30;;
4011;SDS011;2020;48.682;9.024;2023-02-15T17:58:34;14.57;;;10.23;;
4011;SDS011;2020;48.682;9.024;2023-02-15T18:01:00;11.10;;;9.20;;
4011;SDS011;2020;48.682;9.024;2023-02-15T18:03:49;13.10;;;9.43;;
4011;SDS011;2020;48.682;9.024;2023-02-15T18:06:36;11.83;;;9.40;;